Météo Nord-Pas-de-Calais   La météo au plus près de chez vous

Station météorologique

Observations météo à Montpellier-Aeroport (34154)

34154001 1 m Dernier relevé à 12:18
31.1°C
Humidité 40 % Vent 7.2 km/h 1021.4 hPa

Journée consultée

Samedi 5 Septembre 2026

Synthèse de la journée

Périodes de référence en UTC

Température maximale

31.6°C

à 12:00

06h 06h

Température minimale

18.3°C

à 07:24

18h 18h

Rafale maximale

22 km/h

à 12:18

00h 00h

Précipitations

0 mm

Cumul quotidien

06h 06h

Ensoleillement

4h 43 mins

Durée quotidienne

00h 00h

Graphiques de la journée

Heure locale Réduire

Données détaillées

Relevés météo

Pas de 6 minutes Afficher les relevés infra-horaires
Relevés météo détaillés à Montpellier-Aeroport pour le Samedi 5 Septembre 2026
Heure Température °C Point de rosée °C Humidité % Vent moyen (raf.), km/h Précipitations mm Température à 10 cm °C Température à 20 cm °C Température à 50 cm °C Température à 100 cm °C Visibilité m Hauteur neige cm Ensoleillement min Rayonnement global W/m² Pression hPa
12:18 31.1 °C 14.7 °C 37 % 16 km/h (22 km/h) 0 mm0 mm 28.8 °C 25.7 °C 25.6 °C 24.6 °C 19940 m 0 cm 6 min 259.3 W/m² 1021.4 hPa
12:12 31.5 °C 14.2 °C 35 % 14 km/h (21 km/h) 0 mm0 mm 28.6 °C 25.7 °C 25.6 °C 24.6 °C 60000 m 0 cm 6 min 251.5 W/m² 1021.3 hPa
12:06 31.3 °C 14.9 °C 37 % 13 km/h (18 km/h) 0 mm0 mm 28.4 °C 25.6 °C 25.6 °C 24.6 °C 60000 m 0 cm 6 min 245.9 W/m² 1021.3 hPa
12:00 31 °C 15.8 °C 40 % 13 km/h (18 km/h) 0 mm0 mm 28.3 °C 25.5 °C 25.6 °C 24.6 °C 60000 m 0 cm 6 min 239.4 W/m² 1021.4 hPa
11:54 30.9 °C 15.7 °C 40 % 14 km/h (18 km/h) 0 mm0 mm 28.1 °C 25.5 °C 25.7 °C 24.7 °C 19590 m 0 cm 6 min 236 W/m² 1021.3 hPa
11:48 31.2 °C 16.4 °C 41 % 12 km/h (18 km/h) 0 mm0 mm 28 °C 25.4 °C 25.6 °C 24.6 °C 19530 m 0 cm 6 min 227.5 W/m² 1021.3 hPa
11:42 31.2 °C 13.9 °C 35 % 8 km/h (13 km/h) 0 mm0 mm 27.8 °C 25.3 °C 25.7 °C 24.6 °C 19570 m 0 cm 6 min 224.5 W/m² 1021.4 hPa
11:36 30.8 °C 14.4 °C 37 % 9 km/h (12 km/h) 0 mm0 mm 27.7 °C 25.3 °C 25.7 °C 24.6 °C 19600 m 0 cm 6 min 218.3 W/m² 1021.4 hPa
11:30 31 °C 14.6 °C 37 % 8 km/h (12 km/h) 0 mm0 mm 27.5 °C 25.2 °C 25.6 °C 24.6 °C 60000 m 0 cm 6 min 215.2 W/m² 1021.5 hPa
11:24 30.4 °C 14.5 °C 38 % 8 km/h (12 km/h) 0 mm0 mm 27.3 °C 25.2 °C 25.7 °C 24.6 °C 60000 m 0 cm 6 min 207.8 W/m² 1021.4 hPa
11:18 30.6 °C 15.5 °C 40 % 7 km/h (11 km/h) 0 mm0 mm 27.2 °C 25.1 °C 25.7 °C 24.6 °C 17660 m 0 cm 6 min 201.3 W/m² 1021.4 hPa
11:12 31.1 °C 15.5 °C 39 % 6 km/h (10 km/h) 0 mm0 mm 27 °C 25.1 °C 25.7 °C 24.6 °C 60000 m 0 cm 6 min 194.1 W/m² 1021.3 hPa
11:06 31.1 °C 15.9 °C 40 % 5 km/h (8 km/h) 0 mm0 mm 26.8 °C 25 °C 25.7 °C 24.6 °C 19960 m 0 cm 6 min 187.5 W/m² 1021.3 hPa
11:00 30.8 °C 15.6 °C 40 % 5 km/h (8 km/h) 0 mm0 mm 26.7 °C 25 °C 25.7 °C 24.6 °C 19960 m 0 cm 6 min 181.4 W/m² 1021.3 hPa
10:54 30.7 °C 16.3 °C 42 % 6 km/h (8 km/h) 0 mm0 mm 26.5 °C 24.9 °C 25.7 °C 24.6 °C 60000 m 0 cm 6 min 175.4 W/m² 1021.3 hPa
10:48 30.6 °C 15.8 °C 41 % 6 km/h (9 km/h) 0 mm0 mm 26.3 °C 24.9 °C 25.7 °C 24.6 °C 60000 m 0 cm 6 min 170 W/m² 1021.3 hPa
10:42 30.5 °C 16.1 °C 42 % 6 km/h (9 km/h) 0 mm0 mm 26.1 °C 24.8 °C 25.7 °C 24.6 °C 60000 m 0 cm 6 min 164.5 W/m² 1021.3 hPa
10:36 30.5 °C 16.9 °C 44 % 6 km/h (11 km/h) 0 mm0 mm 25.9 °C 24.8 °C 25.7 °C 24.6 °C 60000 m 0 cm 6 min 159.4 W/m² 1021.2 hPa
10:30 30.4 °C 16 °C 42 % 8 km/h (11 km/h) 0 mm0 mm 25.7 °C 24.8 °C 25.7 °C 24.6 °C 60000 m 0 cm 6 min 155.6 W/m² 1021.1 hPa
10:24 29.5 °C 15.6 °C 43 % 6 km/h (11 km/h) 0 mm0 mm 25.6 °C 24.7 °C 25.7 °C 24.6 °C 19720 m 0 cm 6 min 150.4 W/m² 1021.1 hPa
10:18 29.2 °C 15.3 °C 43 % 6 km/h (8 km/h) 0 mm0 mm 25.4 °C 24.7 °C 25.7 °C 24.6 °C 19550 m 0 cm 6 min 148.9 W/m² 1021.1 hPa
10:12 28.6 °C 16.5 °C 48 % 8 km/h (9 km/h) 0 mm0 mm 25.2 °C 24.6 °C 25.7 °C 24.6 °C 19830 m 0 cm 6 min 145.4 W/m² 1021 hPa
10:06 28.4 °C 16 °C 47 % 8 km/h (9 km/h) 0 mm0 mm 25 °C 24.6 °C 25.7 °C 24.6 °C 60000 m 0 cm 6 min 139.6 W/m² 1021 hPa
10:00 28 °C 15.6 °C 47 % 6 km/h (8 km/h) 0 mm0 mm 24.9 °C 24.6 °C 25.7 °C 24.6 °C 60000 m 0 cm 6 min 135.2 W/m² 1021 hPa
09:54 27.6 °C 15.6 °C 48 % 5 km/h (7 km/h) 0 mm0 mm 24.7 °C 24.6 °C 25.7 °C 24.6 °C 19990 m 0 cm 6 min 132.5 W/m² 1021 hPa
09:48 27.1 °C 16.4 °C 52 % 4 km/h (6 km/h) 0 mm0 mm 24.6 °C 24.6 °C 25.8 °C 24.6 °C 60000 m 0 cm 6 min 130.5 W/m² 1020.9 hPa
09:42 26.6 °C 16.2 °C 53 % 5 km/h (6 km/h) 0 mm0 mm 24.4 °C 24.6 °C 25.8 °C 24.6 °C 60000 m 0 cm 6 min 128 W/m² 1020.9 hPa
09:36 26.1 °C 16.4 °C 55 % 6 km/h (7 km/h) 0 mm0 mm 24.3 °C 24.5 °C 25.7 °C 24.6 °C 60000 m 0 cm 6 min 121.4 W/m² 1020.9 hPa
09:30 25.6 °C 16.4 °C 57 % 6 km/h (7 km/h) 0 mm0 mm 24.2 °C 24.5 °C 25.8 °C 24.6 °C 60000 m 0 cm 6 min 113.4 W/m² 1020.9 hPa
09:24 25.2 °C 16.3 °C 58 % 6 km/h (7 km/h) 0 mm0 mm 24.1 °C 24.5 °C 25.8 °C 24.6 °C 60000 m 0 cm 6 min 102.9 W/m² 1020.9 hPa
09:18 24.9 °C 16.9 °C 61 % 7 km/h (8 km/h) 0 mm0 mm 24 °C 24.5 °C 25.8 °C 24.6 °C 60000 m 0 cm 6 min 94.7 W/m² 1020.8 hPa
09:12 24.7 °C 15.9 °C 58 % 7 km/h (8 km/h) 0 mm0 mm 23.9 °C 24.5 °C 25.8 °C 24.6 °C 60000 m 0 cm 4 min 81.3 W/m² 1020.8 hPa
09:06 24.5 °C 15.7 °C 58 % 8 km/h (9 km/h) 0 mm0 mm 23.8 °C 24.5 °C 25.8 °C 24.6 °C 60000 m 0 cm 6 min 80.7 W/m² 1020.7 hPa
09:00 24.4 °C 16.4 °C 61 % 7 km/h (10 km/h) 0 mm0 mm 23.7 °C 24.5 °C 25.8 °C 24.6 °C 60000 m 0 cm 6 min 87.6 W/m² 1020.8 hPa
08:54 24 °C 16.3 °C 62 % 5 km/h (8 km/h) 0 mm0 mm 23.5 °C 24.5 °C 25.8 °C 24.6 °C 60000 m 0 cm 6 min 88.9 W/m² 1020.8 hPa
08:48 23.9 °C 16.4 °C 63 % 5 km/h (7 km/h) 0 mm0 mm 23.4 °C 24.5 °C 25.8 °C 24.6 °C 60000 m 0 cm 6 min 84.6 W/m² 1020.7 hPa
08:42 23.6 °C 16.9 °C 66 % 6 km/h (8 km/h) 0 mm0 mm 23.3 °C 24.5 °C 25.8 °C 24.6 °C 60000 m 0 cm 6 min 77 W/m² 1020.7 hPa
08:36 23.5 °C 17.7 °C 70 % 6 km/h (10 km/h) 0 mm0 mm 23.3 °C 24.5 °C 25.8 °C 24.6 °C 60000 m 0 cm 6 min 71 W/m² 1020.7 hPa
08:30 23 °C 17.5 °C 71 % 7 km/h (10 km/h) 0 mm0 mm 23.2 °C 24.5 °C 25.8 °C 24.6 °C 56560 m 0 cm 6 min 63.6 W/m² 1020.7 hPa
08:24 22.5 °C 17 °C 71 % 8 km/h (11 km/h) 0 mm0 mm 23.2 °C 24.6 °C 25.8 °C 24.6 °C 56560 m 0 cm 6 min 55.6 W/m² 1020.7 hPa
08:18 22.2 °C 17.3 °C 74 % 8 km/h (11 km/h) 0 mm0 mm 23.1 °C 24.6 °C 25.8 °C 24.6 °C 60000 m 0 cm 6 min 50.3 W/m² 1020.6 hPa
08:12 21.6 °C 16.5 °C 73 % 8 km/h (11 km/h) 0 mm0 mm 23.1 °C 24.6 °C 25.8 °C 24.6 °C 19980 m 0 cm 6 min 44.3 W/m² 1020.6 hPa
08:06 21.1 °C 16.5 °C 75 % 9 km/h (15 km/h) 0 mm0 mm 23 °C 24.6 °C 25.8 °C 24.6 °C 60000 m 0 cm 6 min 37.1 W/m² 1020.5 hPa
08:00 22 °C 16 °C 69 % 9 km/h (11 km/h) 0 mm0 mm 23 °C 24.6 °C 25.8 °C 24.6 °C 60000 m 0 cm 6 min 30.2 W/m² 1020.4 hPa
07:54 21.6 °C 15.9 °C 70 % 8 km/h (10 km/h) 0 mm0 mm 23 °C 24.7 °C 25.9 °C 24.7 °C 60000 m 0 cm 6 min 24.7 W/m² 1020.3 hPa
07:48 20.8 °C 15.8 °C 73 % 9 km/h (15 km/h) 0 mm0 mm 23 °C 24.6 °C 25.8 °C 24.6 °C 60000 m 0 cm 6 min 18.7 W/m² 1020.3 hPa
07:42 19.9 °C 15.7 °C 77 % 12 km/h (15 km/h) 0 mm0 mm 23 °C 24.7 °C 25.8 °C 24.6 °C 60000 m 0 cm 6 min 13.9 W/m² 1020.2 hPa
07:36 19.2 °C 15.5 °C 79 % 13 km/h (15 km/h) 0 mm0 mm 23 °C 24.7 °C 25.8 °C 24.6 °C 19610 m 0 cm 3 min 9.4 W/m² 1020.1 hPa
07:30 18.5 °C 15.4 °C 82 % 11 km/h (14 km/h) 0 mm0 mm 23 °C 24.7 °C 25.9 °C 24.6 °C 19610 m 0 cm 0 min 1.3 W/m² 1020 hPa
07:24 18.3 °C 15.2 °C 82 % 9 km/h (10 km/h) 0 mm0 mm 23 °C 24.8 °C 25.9 °C 24.7 °C 60000 m 0 cm 0 min 0 W/m² 1020 hPa
07:18 18.4 °C 15.3 °C 82 % 7 km/h (10 km/h) 0 mm0 mm 23 °C 24.7 °C 25.8 °C 24.6 °C 19570 m 0 cm 0 min 0 W/m² 1020 hPa
07:12 18.6 °C 15.5 °C 82 % 6 km/h (10 km/h) 0 mm0 mm 23.1 °C 24.8 °C 25.8 °C 24.6 °C 19600 m 0 cm 0 min 0 W/m² 1020 hPa
07:06 19.2 °C 15.9 °C 81 % 8 km/h (10 km/h) 0 mm0 mm 23.1 °C 24.8 °C 25.8 °C 24.6 °C 60000 m 0 cm 0 min 0 W/m² 1019.9 hPa
07:00 19 °C 16 °C 83 % 8 km/h (10 km/h) 0 mm0 mm 23.1 °C 24.8 °C 25.9 °C 24.6 °C 60000 m 0 cm 0 min 0 W/m² 1020 hPa
06:54 18.8 °C 15.7 °C 82 % 9 km/h (11 km/h) 0 mm0 mm 23.1 °C 24.9 °C 25.9 °C 24.7 °C 20000 m 0 cm 0 min 0 W/m² 1019.9 hPa
06:48 19.1 °C 16 °C 82 % 9 km/h (11 km/h) 0 mm0 mm 23.1 °C 24.8 °C 25.9 °C 24.6 °C 18640 m 0 cm 0 min 0 W/m² 1019.9 hPa
06:42 19.1 °C 16.1 °C 83 % 9 km/h (13 km/h) 0 mm0 mm 23.2 °C 24.9 °C 25.9 °C 24.6 °C 18050 m 0 cm 0 min 0 W/m² 1019.8 hPa
06:36 18.8 °C 16 °C 84 % 10 km/h (13 km/h) 0 mm0 mm 23.2 °C 24.9 °C 25.9 °C 24.7 °C 19900 m 0 cm 0 min 0 W/m² 1019.8 hPa
06:30 18.4 °C 15.6 °C 84 % 10 km/h (13 km/h) 0 mm0 mm 23.2 °C 24.9 °C 25.9 °C 24.6 °C 60000 m 0 cm 0 min 0 W/m² 1019.7 hPa
06:24 18.8 °C 15.8 °C 83 % 9 km/h (12 km/h) 0 mm0 mm 23.2 °C 24.9 °C 25.9 °C 24.6 °C 60000 m 0 cm 0 min 0 W/m² 1019.7 hPa
06:18 18.9 °C 15.9 °C 83 % 10 km/h (12 km/h) 0 mm0 mm 23.2 °C 25 °C 25.9 °C 24.6 °C 60000 m 0 cm 0 min 0 W/m² 1019.6 hPa
06:12 19.1 °C 16.1 °C 83 % 10 km/h (12 km/h) 0 mm0 mm 23.2 °C 25 °C 25.9 °C 24.6 °C 60000 m 0 cm 0 min 0 W/m² 1019.7 hPa
06:06 19.1 °C 16 °C 82 % 10 km/h (14 km/h) 0 mm0 mm 23.3 °C 25 °C 25.9 °C 24.7 °C 60000 m 0 cm 0 min 0 W/m² 1019.7 hPa
06:00 19.3 °C 16.1 °C 82 % 9 km/h (14 km/h) 0 mm0 mm 23.3 °C 25 °C 25.9 °C 24.6 °C 60000 m 0 cm 0 min 0 W/m² 1019.6 hPa
05:54 19.4 °C 16.1 °C 81 % 8 km/h (10 km/h) 0 mm0 mm 23.3 °C 25 °C 25.9 °C 24.6 °C 60000 m 0 cm 0 min 0 W/m² 1019.6 hPa
05:48 19.1 °C 16.1 °C 83 % 6 km/h (10 km/h) 0 mm0 mm 23.3 °C 25.1 °C 25.9 °C 24.6 °C 60000 m 0 cm 0 min 0 W/m² 1019.6 hPa
05:42 19.1 °C 16.3 °C 84 % 8 km/h (12 km/h) 0 mm0 mm 23.4 °C 25.1 °C 25.9 °C 24.7 °C 19850 m 0 cm 0 min 0 W/m² 1019.6 hPa
05:36 19 °C 16.4 °C 85 % 9 km/h (12 km/h) 0 mm0 mm 23.4 °C 25.1 °C 25.9 °C 24.7 °C 60000 m 0 cm 0 min 0 W/m² 1019.5 hPa
05:30 18.6 °C 16 °C 85 % 8 km/h (10 km/h) 0 mm0 mm 23.4 °C 25.1 °C 25.9 °C 24.6 °C 19650 m 0 cm 0 min 0 W/m² 1019.5 hPa
05:24 18.4 °C 15.6 °C 84 % 7 km/h (8 km/h) 0 mm0 mm 23.4 °C 25.2 °C 25.9 °C 24.6 °C 19280 m 0 cm 0 min 0 W/m² 1019.5 hPa
05:18 18.9 °C 16.1 °C 84 % 7 km/h (8 km/h) 0 mm0 mm 23.5 °C 25.2 °C 25.9 °C 24.6 °C 19640 m 0 cm 0 min 0 W/m² 1019.6 hPa
05:12 19.2 °C 16.1 °C 82 % 7 km/h (9 km/h) 0 mm0 mm 23.5 °C 25.2 °C 25.9 °C 24.6 °C 19920 m 0 cm 0 min 0 W/m² 1019.6 hPa
05:06 19.8 °C 16.6 °C 82 % 7 km/h (9 km/h) 0 mm0 mm 23.5 °C 25.2 °C 25.9 °C 24.7 °C 60000 m 0 cm 0 min 0 W/m² 1019.6 hPa
05:00 19.7 °C 16.9 °C 84 % 6 km/h (7 km/h) 0 mm0 mm 23.5 °C 25.2 °C 25.9 °C 24.6 °C 59010 m 0 cm 0 min 0 W/m² 1019.6 hPa
04:54 19.6 °C 16.8 °C 84 % 7 km/h (9 km/h) 0 mm0 mm 23.5 °C 25.3 °C 25.9 °C 24.6 °C 58690 m 0 cm 0 min 0 W/m² 1019.6 hPa
04:48 19.4 °C 16.6 °C 84 % 9 km/h (12 km/h) 0 mm0 mm 23.6 °C 25.3 °C 25.9 °C 24.7 °C 19960 m 0 cm 0 min 0 W/m² 1019.6 hPa
04:42 19.6 °C 16.8 °C 84 % 8 km/h (12 km/h) 0 mm0 mm 23.6 °C 25.3 °C 25.9 °C 24.6 °C 20000 m 0 cm 0 min 0 W/m² 1019.5 hPa
04:36 19.9 °C 16.7 °C 82 % 5 km/h (8 km/h) 0 mm0 mm 23.6 °C 25.4 °C 25.9 °C 24.7 °C 60000 m 0 cm 0 min 0 W/m² 1019.5 hPa
04:30 20 °C 17 °C 83 % 5 km/h (7 km/h) 0 mm0 mm 23.6 °C 25.4 °C 25.9 °C 24.6 °C 60000 m 0 cm 0 min 0 W/m² 1019.5 hPa
04:24 20.4 °C 17.4 °C 83 % 7 km/h (10 km/h) 0 mm0 mm 23.7 °C 25.4 °C 25.9 °C 24.6 °C 60000 m 0 cm 0 min 0 W/m² 1019.5 hPa
04:18 20.4 °C 17.4 °C 83 % 8 km/h (10 km/h) 0 mm0 mm 23.7 °C 25.5 °C 26 °C 24.7 °C 60000 m 0 cm 0 min 0 W/m² 1019.4 hPa
04:12 19.7 °C 16.7 °C 83 % 6 km/h (9 km/h) 0 mm0 mm 23.8 °C 25.5 °C 26 °C 24.6 °C 60000 m 0 cm 0 min 0 W/m² 1019.4 hPa
04:06 19.3 °C 16.7 °C 85 % 5 km/h (6 km/h) 0 mm0 mm 23.8 °C 25.5 °C 25.9 °C 24.6 °C 60000 m 0 cm 0 min 0 W/m² 1019.4 hPa
04:00 18.7 °C 16.1 °C 85 % 5 km/h (6 km/h) 0 mm0 mm 23.8 °C 25.5 °C 25.9 °C 24.7 °C 60000 m 0 cm 0 min 0 W/m² 1019.4 hPa
03:54 18.8 °C 16 °C 84 % 4 km/h (5 km/h) 0 mm0 mm 23.8 °C 25.5 °C 25.9 °C 24.6 °C 60000 m 0 cm 0 min 0 W/m² 1019.3 hPa
03:48 19.1 °C 16.1 °C 83 % 3 km/h (6 km/h) 0 mm0 mm 23.9 °C 25.6 °C 25.9 °C 24.6 °C 60000 m 0 cm 0 min 0 W/m² 1019.3 hPa
03:42 19.5 °C 16.7 °C 84 % 4 km/h (6 km/h) 0 mm0 mm 23.9 °C 25.6 °C 25.9 °C 24.6 °C 60000 m 0 cm 0 min 0 W/m² 1019.3 hPa
03:36 19.4 °C 17 °C 86 % 4 km/h (5 km/h) 0 mm0 mm 24 °C 25.6 °C 25.9 °C 24.6 °C 60000 m 0 cm 0 min 0 W/m² 1019.2 hPa
03:30 18.5 °C 15.6 °C 83 % 4 km/h (5 km/h) 0 mm0 mm 24 °C 25.6 °C 25.9 °C 24.6 °C 60000 m 0 cm 0 min 0 W/m² 1019.3 hPa
03:24 18.7 °C 15.8 °C 83 % 4 km/h (6 km/h) 0 mm0 mm 24.1 °C 25.7 °C 25.9 °C 24.6 °C 60000 m 0 cm 0 min 0 W/m² 1019.2 hPa
03:18 18.9 °C 15.8 °C 82 % 4 km/h (6 km/h) 0 mm0 mm 24.1 °C 25.7 °C 25.9 °C 24.7 °C 60000 m 0 cm 0 min 0 W/m² 1019.2 hPa
03:12 19.2 °C 16.1 °C 82 % 3 km/h (4 km/h) 0 mm0 mm 24.1 °C 25.7 °C 25.9 °C 24.6 °C 60000 m 0 cm 0 min 0 W/m² 1019.2 hPa
03:06 19.6 °C 16.4 °C 82 % 3 km/h (5 km/h) 0 mm0 mm 24.2 °C 25.7 °C 25.9 °C 24.6 °C 60000 m 0 cm 0 min 0 W/m² 1019.2 hPa
03:00 19.6 °C 16.4 °C 82 % 4 km/h (5 km/h) 0 mm0 mm 24.2 °C 25.8 °C 26 °C 24.6 °C 59620 m 0 cm 0 min 0 W/m² 1019.1 hPa
02:54 19.7 °C 16.5 °C 82 % 4 km/h (5 km/h) 0 mm0 mm 24.2 °C 25.8 °C 25.9 °C 24.6 °C 59620 m 0 cm 0 min 0 W/m² 1019.1 hPa
02:48 19.4 °C 16.4 °C 83 % 4 km/h (6 km/h) 0 mm0 mm 24.3 °C 25.8 °C 25.9 °C 24.6 °C 60000 m 0 cm 0 min 0 W/m² 1019.2 hPa
02:42 19.5 °C 16.3 °C 82 % 3 km/h (6 km/h) 0 mm0 mm 24.3 °C 25.8 °C 25.9 °C 24.6 °C 60000 m 0 cm 0 min 0 W/m² 1019.2 hPa
02:36 19.6 °C 16.4 °C 82 % 4 km/h (8 km/h) 0 mm0 mm 24.4 °C 25.9 °C 25.9 °C 24.6 °C 60000 m 0 cm 0 min 0 W/m² 1019.1 hPa
02:30 19.5 °C 16.5 °C 83 % 7 km/h (11 km/h) 0 mm0 mm 24.4 °C 25.9 °C 26 °C 24.6 °C 60000 m 0 cm 0 min 0 W/m² 1019.1 hPa
02:24 19.3 °C 16.5 °C 84 % 6 km/h (11 km/h) 0 mm0 mm 24.4 °C 25.9 °C 25.9 °C 24.7 °C 60000 m 0 cm 0 min 0 W/m² 1019.1 hPa
02:18 19.4 °C 16.6 °C 84 % 6 km/h (10 km/h) 0 mm0 mm 24.5 °C 26 °C 25.9 °C 24.6 °C 60000 m 0 cm 0 min 0 W/m² 1019.2 hPa
02:12 19.6 °C 16.8 °C 84 % 6 km/h (10 km/h) 0 mm0 mm 24.5 °C 26 °C 26 °C 24.7 °C 19930 m 0 cm 0 min 0 W/m² 1019.2 hPa
02:06 19.7 °C 17.1 °C 85 % 5 km/h (9 km/h) 0 mm0 mm 24.5 °C 26 °C 25.9 °C 24.6 °C 19670 m 0 cm 0 min 0 W/m² 1019.3 hPa
02:00 19.7 °C 17.3 °C 86 % 9 km/h (15 km/h) 0 mm0 mm 24.6 °C 26 °C 25.9 °C 24.6 °C 19670 m 0 cm 0 min 0 W/m² 1019.2 hPa
01:54 19.7 °C 17.5 °C 87 % 13 km/h (15 km/h) 0 mm0 mm 24.6 °C 26.1 °C 25.9 °C 24.6 °C 18830 m 0 cm 0 min 0 W/m² 1019.3 hPa
01:48 19.6 °C 17.2 °C 86 % 9 km/h (14 km/h) 0 mm0 mm 24.6 °C 26.1 °C 26 °C 24.6 °C 18820 m 0 cm 0 min 0 W/m² 1019.2 hPa
01:42 20.4 °C 17.6 °C 84 % 8 km/h (9 km/h) 0 mm0 mm 24.7 °C 26.1 °C 25.9 °C 24.7 °C 19910 m 0 cm 0 min 0 W/m² 1019.3 hPa
01:36 20.5 °C 18.3 °C 87 % 6 km/h (9 km/h) 0 mm0 mm 24.7 °C 26.2 °C 25.9 °C 24.6 °C 19880 m 0 cm 0 min 0 W/m² 1019.3 hPa
01:30 20.3 °C 18.2 °C 88 % 6 km/h (9 km/h) 0 mm0 mm 24.7 °C 26.2 °C 25.9 °C 24.7 °C 19410 m 0 cm 0 min 0 W/m² 1019.2 hPa
01:24 20.2 °C 18.3 °C 89 % 9 km/h (14 km/h) 0 mm0 mm 24.8 °C 26.3 °C 25.9 °C 24.7 °C 17770 m 0 cm 0 min 0 W/m² 1019.3 hPa
01:18 19.8 °C 17.9 °C 89 % 12 km/h (14 km/h) 0 mm0 mm 24.8 °C 26.3 °C 25.9 °C 24.6 °C 16820 m 0 cm 0 min 0 W/m² 1019.2 hPa
01:12 19.6 °C 17.2 °C 86 % 11 km/h (14 km/h) 0 mm0 mm 24.8 °C 26.3 °C 25.9 °C 24.6 °C 17710 m 0 cm 0 min 0 W/m² 1019.2 hPa
01:06 20.4 °C 17.6 °C 84 % 9 km/h (10 km/h) 0 mm0 mm 24.9 °C 26.3 °C 25.9 °C 24.6 °C 19770 m 0 cm 0 min 0 W/m² 1019.1 hPa
01:00 20.7 °C 17.5 °C 82 % 6 km/h (9 km/h) 0 mm0 mm 24.9 °C 26.4 °C 25.9 °C 24.7 °C 19920 m 0 cm 0 min 0 W/m² 1019.1 hPa
00:54 21.5 °C 18.7 °C 84 % 5 km/h (8 km/h) 0 mm0 mm 25 °C 26.4 °C 25.9 °C 24.7 °C 19960 m 0 cm 0 min 0 W/m² 1019.1 hPa
00:48 21.4 °C 18.6 °C 84 % 6 km/h (9 km/h) 0 mm0 mm 25 °C 26.4 °C 25.9 °C 24.7 °C 19970 m 0 cm 0 min 0 W/m² 1019.2 hPa
00:42 21.2 °C 18.2 °C 83 % 7 km/h (9 km/h) 0 mm0 mm 25 °C 26.5 °C 25.9 °C 24.7 °C 60000 m 0 cm 0 min 0 W/m² 1019.2 hPa
00:36 21.1 °C 18.1 °C 83 % 7 km/h (8 km/h) 0 mm0 mm 25 °C 26.5 °C 25.9 °C 24.7 °C 60000 m 0 cm 0 min 0 W/m² 1019.3 hPa
00:30 21.1 °C 18.1 °C 83 % 7 km/h (9 km/h) 0 mm0 mm 25.1 °C 26.5 °C 25.9 °C 24.7 °C 60000 m 0 cm 0 min 0 W/m² 1019.3 hPa
00:24 20.8 °C 17.8 °C 83 % 9 km/h (10 km/h) 0 mm0 mm 25.1 °C 26.6 °C 25.9 °C 24.7 °C 60000 m 0 cm 0 min 0 W/m² 1019.2 hPa
00:18 20.5 °C 17.5 °C 83 % 9 km/h (10 km/h) 0 mm0 mm 25.2 °C 26.6 °C 25.9 °C 24.6 °C 60000 m 0 cm 0 min 0 W/m² 1019.2 hPa
00:12 20.5 °C 17.5 °C 83 % 8 km/h (10 km/h) 0 mm0 mm 25.2 °C 26.7 °C 25.9 °C 24.7 °C 60000 m 0 cm 0 min 0 W/m² 1019.1 hPa
00:06 21.1 °C 17.5 °C 80 % 5 km/h (8 km/h) 0 mm0 mm 25.2 °C 26.7 °C 25.9 °C 24.6 °C 60000 m 0 cm 0 min 0 W/m² 1019 hPa
00:00 21.3 °C 17.3 °C 78 % 4 km/h (5 km/h) 0 mm0 mm 25.3 °C 26.7 °C 25.9 °C 24.6 °C 60000 m 0 cm 0 min 0 W/m² 1018.9 hPa

Données via Météo-France

Relevés météo à Montpellier-Aeroport

Cette page rassemble les observations de la station de Montpellier-Aeroport : température, humidité, vent, précipitations et pression atmosphérique. Les graphiques facilitent le suivi de la journée, tandis que le tableau donne accès aux mesures horaires et infra-horaires disponibles.

Pour replacer ces mesures dans leur contexte, consultez la climatologie de Montpellier-Aeroport ainsi que ses normales et records. Retrouvez aussi la carte des observations météo en temps réel.